Time;durP1;ratioP1;P1;durP2;ratioP2;P2;SDS_P1;SDS_P2;PMS_P1;PMS_P2;Temp;Humidity;BMP_temperature;BMP_pressure;BME280_temperature;BME280_humidity;BME280_pressure;Samples;Min_cycle;Max_cycle;Signal;HPM_P1;HPM_P2
2024/03/14 00:00:19;;;;;;;;;;;;;;;13.47;58.00;100976.22;5100998;28;20374;-86
2024/03/14 00:03:11;;;;;;;;;;;;;;;13.50;58.15;100978.31;5095803;28;19920;-86
2024/03/14 00:06:04;;;;;;;;;;;;;;;13.55;58.42;100980.06;5087350;28;19916;-86
2024/03/14 00:08:56;;;;;;;;;;;;;;;13.66;58.19;100979.31;5087492;28;19924;-87
2024/03/14 00:11:45;;;;;;;;;;;;;;;13.71;57.90;100967.44;5087065;28;19916;-86
2024/03/14 00:14:37;;;;;;;;;;;;;;;13.70;57.15;100979.50;5095372;28;19916;-86
2024/03/14 00:17:26;;;;;;;;;;;;;;;13.61;56.80;100976.00;5101291;28;19916;-86
2024/03/14 00:20:18;;;;;;;;;;;;;;;13.42;57.82;100972.84;5094929;28;19916;-86
2024/03/14 00:23:11;;;;;;;;;;;;;;;13.23;57.87;100970.53;5095151;28;19920;-86
2024/03/14 00:26:01;;;;;;;;;;;;;;;13.25;57.96;100976.47;5086465;28;19916;-85
2024/03/14 00:28:51;;;;;;;;;;;;;;;13.29;57.73;100977.41;5086329;28;19924;-85
2024/03/14 00:31:43;;;;;;;;;;;;;;;13.12;58.04;100972.00;5100763;28;19916;-85
2024/03/14 00:34:32;;;;;;;;;;;;;;;13.16;58.81;100976.47;5094942;28;19916;-86
2024/03/14 00:37:24;;;;;;;;;;;;;;;13.26;58.66;100975.31;5086397;28;19916;-86
2024/03/14 00:40:12;;;;;;;;;;;;;;;13.20;57.97;100973.91;5100442;28;19916;-85
2024/03/14 00:42:58;;;;;;;;;;;;;;;13.07;58.24;100978.41;5085559;28;19916;-86
2024/03/14 00:45:48;;;;;;;;;;;;;;;13.09;58.54;100973.44;5086215;28;20293;-86
2024/03/14 00:48:40;;;;;;;;;;;;;;;13.11;58.55;100973.94;5094197;28;19924;-86
2024/03/14 00:51:35;;;;;;;;;;;;;;;13.05;58.86;100971.69;5096928;28;20373;-86
2024/03/14 00:54:27;;;;;;;;;;;;;;;12.90;59.54;100974.94;5081038;28;19916;-86
2024/03/14 00:57:19;;;;;;;;;;;;;;;12.97;59.58;100975.22;5078960;28;19916;-86
2024/03/14 01:00:15;;;;;;;;;;;;;;;12.96;59.80;100976.34;5085515;28;20393;-86
2024/03/14 01:03:07;;;;;;;;;;;;;;;13.08;59.79;100973.75;5094483;28;20285;-86
2024/03/14 01:06:02;;;;;;;;;;;;;;;12.94;59.79;100967.69;5094159;28;19917;-85
2024/03/14 01:08:54;;;;;;;;;;;;;;;12.95;59.61;100959.19;5096335;28;19920;-86
2024/03/14 01:11:46;;;;;;;;;;;;;;;12.77;59.32;100955.69;5085460;28;19916;-86
2024/03/14 01:14:38;;;;;;;;;;;;;;;12.74;59.32;100966.44;5080541;28;19916;-86
2024/03/14 01:17:31;;;;;;;;;;;;;;;12.66;59.45;100965.31;5085538;28;19920;-86
2024/03/14 01:20:20;;;;;;;;;;;;;;;12.66;59.37;100959.06;5093793;28;19920;-86
2024/03/14 01:23:12;;;;;;;;;;;;;;;12.64;59.41;100962.13;5084712;28;20292;-86
2024/03/14 01:26:04;;;;;;;;;;;;;;;12.73;59.45;100968.38;5094268;28;19916;-86
2024/03/14 01:28:54;;;;;;;;;;;;;;;12.76;59.05;100956.00;5099185;28;20381;-86
2024/03/14 01:31:46;;;;;;;;;;;;;;;12.83;58.84;100951.66;5085431;28;20312;-86
2024/03/14 01:34:38;;;;;;;;;;;;;;;12.90;58.31;100962.06;5093601;28;19920;-86
2024/03/14 01:37:33;;;;;;;;;;;;;;;12.61;58.09;100956.50;5085315;28;19916;-85
2024/03/14 01:40:23;;;;;;;;;;;;;;;12.54;58.81;100958.94;5093463;28;19916;-86
2024/03/14 01:43:16;;;;;;;;;;;;;;;12.50;58.31;100949.75;5093490;28;19916;-86
2024/03/14 01:46:08;;;;;;;;;;;;;;;12.65;59.96;100949.25;5085167;28;19923;-86
2024/03/14 01:48:58;;;;;;;;;;;;;;;12.59;59.63;100945.94;5084792;28;19920;-86
2024/03/14 01:51:48;;;;;;;;;;;;;;;12.63;59.03;100951.53;5093496;28;19916;-86
2024/03/14 01:54:41;;;;;;;;;;;;;;;12.62;59.74;100942.53;5086837;28;19920;-86
2024/03/14 01:57:33;;;;;;;;;;;;;;;12.64;59.25;100942.22;5093441;28;19916;-86
2024/03/14 02:00:29;;;;;;;;;;;;;;;12.77;59.50;100938.50;5096177;28;19916;-86
2024/03/14 02:03:21;;;;;;;;;;;;;;;12.81;59.50;100939.44;5079839;28;19916;-86
2024/03/14 02:06:18;;;;;;;;;;;;;;;12.73;59.63;100941.09;5093270;28;19916;-86
2024/03/14 02:09:10;;;;;;;;;;;;;;;12.78;60.61;100932.72;5084427;28;19920;-86
2024/03/14 02:12:01;;;;;;;;;;;;;;;12.76;60.59;100937.69;5084664;28;19920;-86
2024/03/14 02:14:53;;;;;;;;;;;;;;;12.71;60.00;100946.06;5093152;28;20384;-86
2024/03/14 02:17:45;;;;;;;;;;;;;;;12.72;60.61;100935.94;5084609;28;19916;-86
2024/03/14 02:20:37;;;;;;;;;;;;;;;12.66;61.29;100939.97;5084383;28;19916;-86
2024/03/14 02:23:29;;;;;;;;;;;;;;;12.78;60.48;100942.84;5082674;28;19916;-86
2024/03/14 02:26:21;;;;;;;;;;;;;;;12.58;60.22;100932.59;5084470;28;19920;-86
2024/03/14 02:29:13;;;;;;;;;;;;;;;12.39;60.54;100930.22;5092767;28;19920;-86
2024/03/14 02:32:05;;;;;;;;;;;;;;;12.41;61.11;100933.41;5092915;28;19916;-86
2024/03/14 02:34:54;;;;;;;;;;;;;;;12.34;60.71;100933.09;5092486;28;19934;-86
2024/03/14 02:37:46;;;;;;;;;;;;;;;12.37;60.74;100927.00;5092584;28;19916;-86
2024/03/14 02:40:38;;;;;;;;;;;;;;;12.14;60.95;100922.84;5083963;28;19916;-86
2024/03/14 02:43:30;;;;;;;;;;;;;;;12.12;61.30;100925.88;5082480;28;19916;-86
2024/03/14 02:46:16;;;;;;;;;;;;;;;12.06;61.64;100923.63;5092850;28;19916;-86
2024/03/14 02:49:08;;;;;;;;;;;;;;;11.97;60.83;100929.88;5092236;28;19920;-86
2024/03/14 02:52:00;;;;;;;;;;;;;;;11.92;61.86;100921.88;5079090;28;19916;-86
2024/03/14 02:54:52;;;;;;;;;;;;;;;12.09;61.73;100914.81;5078841;28;19920;-86
2024/03/14 02:57:41;;;;;;;;;;;;;;;12.08;60.89;100918.66;5092792;28;19916;-86
2024/03/14 03:00:33;;;;;;;;;;;;;;;12.10;61.26;100919.13;5093213;28;20288;-86
2024/03/14 03:03:23;;;;;;;;;;;;;;;12.09;60.99;100917.56;5096868;28;19916;-86
2024/03/14 03:06:14;;;;;;;;;;;;;;;11.95;60.95;100920.41;5078124;28;19916;-86
2024/03/14 03:09:06;;;;;;;;;;;;;;;11.92;60.48;100921.88;5083813;28;19920;-86
2024/03/14 03:12:02;;;;;;;;;;;;;;;11.76;61.36;100928.06;5092463;28;19916;-86
2024/03/14 03:14:54;;;;;;;;;;;;;;;11.83;61.13;100926.50;5092570;28;19916;-86
2024/03/14 03:17:46;;;;;;;;;;;;;;;11.88;61.39;100920.09;5092466;28;20277;-86
2024/03/14 03:20:33;;;;;;;;;;;;;;;12.08;60.95;100918.66;5078362;28;19916;-86
2024/03/14 03:23:25;;;;;;;;;;;;;;;12.08;60.37;100914.03;5082620;28;19916;-86
2024/03/14 03:26:12;;;;;;;;;;;;;;;11.96;60.17;100924.75;5084034;28;20296;-86
2024/03/14 03:29:04;;;;;;;;;;;;;;;11.84;60.61;100922.63;5083595;28;19920;-85
2024/03/14 03:31:56;;;;;;;;;;;;;;;11.90;61.10;100926.00;5083865;28;19916;-86
2024/03/14 03:34:46;;;;;;;;;;;;;;;11.85;61.02;100926.16;5078768;28;19916;-86
2024/03/14 03:37:36;;;;;;;;;;;;;;;11.80;60.96;100929.84;5095988;28;19916;-86
2024/03/14 03:40:25;;;;;;;;;;;;;;;11.98;61.00;100925.25;5087163;28;19916;-86
2024/03/14 03:43:20;;;;;;;;;;;;;;;12.12;60.79;100927.81;5095636;28;19916;-85
2024/03/14 03:46:12;;;;;;;;;;;;;;;12.22;59.68;100930.22;5087220;28;20285;-86
2024/03/14 03:49:03;;;;;;;;;;;;;;;12.14;60.34;100928.31;5101389;28;19920;-86
2024/03/14 03:51:55;;;;;;;;;;;;;;;12.07;59.86;100927.97;5081526;28;19916;-86
2024/03/14 03:54:47;;;;;;;;;;;;;;;11.98;59.79;100928.78;5095528;28;19916;-86
2024/03/14 03:57:39;;;;;;;;;;;;;;;12.00;59.43;100931.97;5095725;28;19916;-86
2024/03/14 04:00:43;;;;;;;;;;;;;;;11.84;59.75;100930.00;5086564;28;19920;-86
2024/03/14 04:03:38;;;;;;;;;;;;;;;11.64;59.88;100923.22;5084793;28;19916;-86
2024/03/14 04:06:31;;;;;;;;;;;;;;;11.51;60.82;100926.88;5101170;28;20292;-86
2024/03/14 04:09:24;;;;;;;;;;;;;;;11.50;61.34;100930.69;5095230;28;20289;-86
2024/03/14 04:12:18;;;;;;;;;;;;;;;11.38;60.73;100927.78;5086681;28;19916;-86
2024/03/14 04:15:10;;;;;;;;;;;;;;;11.46;60.73;100929.75;5080247;28;19916;-86
2024/03/14 04:18:02;;;;;;;;;;;;;;;11.45;60.84;100928.13;5097666;28;20574;-86
2024/03/14 04:20:54;;;;;;;;;;;;;;;11.54;59.89;100931.66;5098158;28;20307;-84
2024/03/14 04:23:46;;;;;;;;;;;;;;;11.50;60.30;100930.69;5103405;28;19916;-86
2024/03/14 04:26:35;;;;;;;;;;;;;;;11.54;60.03;100926.22;5106729;28;19915;-86
2024/03/14 04:29:26;;;;;;;;;;;;;;;11.55;60.17;100934.09;5120798;28;19920;-86
2024/03/14 04:32:18;;;;;;;;;;;;;;;11.58;60.44;100935.38;5106932;28;19915;-86
2024/03/14 04:35:13;;;;;;;;;;;;;;;11.43;60.45;100935.78;5114855;28;19916;-85
2024/03/14 04:38:04;;;;;;;;;;;;;;;11.54;60.28;100934.41;5106524;28;19916;-85
2024/03/14 04:40:56;;;;;;;;;;;;;;;11.57;60.60;100941.94;5114931;28;19915;-86
2024/03/14 04:43:48;;;;;;;;;;;;;;;11.59;60.56;100942.41;5114978;28;19915;-85
2024/03/14 04:46:41;;;;;;;;;;;;;;;11.59;60.46;100942.41;5120801;28;19916;-85
2024/03/14 04:49:33;;;;;;;;;;;;;;;11.38;60.61;100933.22;5114540;28;19920;-86
2024/03/14 04:52:22;;;;;;;;;;;;;;;11.32;60.78;100934.50;5114603;28;19915;-86
2024/03/14 04:55:15;;;;;;;;;;;;;;;11.31;61.79;100933.69;5099541;28;19927;-86
2024/03/14 04:58:04;;;;;;;;;;;;;;;11.04;61.95;100933.88;5120551;28;19915;-86
2024/03/14 05:01:01;;;;;;;;;;;;;;;11.06;62.21;100939.81;5105975;28;19916;-86
2024/03/14 05:03:53;;;;;;;;;;;;;;;10.98;62.24;100935.13;5117901;28;19915;-86
2024/03/14 05:06:44;;;;;;;;;;;;;;;11.05;62.89;100940.94;5094192;28;20377;-86
2024/03/14 05:09:37;;;;;;;;;;;;;;;11.10;63.15;100936.16;5060921;28;20540;-85
2024/03/14 05:12:29;;;;;;;;;;;;;;;11.19;63.00;100936.19;5085838;28;19916;-85
2024/03/14 05:15:21;;;;;;;;;;;;;;;11.11;63.00;100937.78;5093661;28;19916;-86
2024/03/14 05:18:10;;;;;;;;;;;;;;;11.08;63.52;100946.53;5093921;28;19920;-84
2024/03/14 05:21:02;;;;;;;;;;;;;;;11.00;63.68;100949.22;5086281;28;20390;-83
2024/03/14 05:23:55;;;;;;;;;;;;;;;11.00;63.62;100938.34;5081986;28;20393;-85
2024/03/14 05:26:45;;;;;;;;;;;;;;;10.90;63.77;100944.88;5102439;28;19916;-85
2024/03/14 05:29:36;;;;;;;;;;;;;;;10.95;64.57;100938.47;5114565;28;20372;-86
2024/03/14 05:32:29;;;;;;;;;;;;;;;10.88;64.14;100936.19;5120283;28;19916;-86
2024/03/14 05:35:21;;;;;;;;;;;;;;;10.89;64.15;100940.53;5114508;28;19916;-85
2024/03/14 05:38:13;;;;;;;;;;;;;;;11.01;63.64;100946.22;5095239;28;20319;-85
2024/03/14 05:41:00;;;;;;;;;;;;;;;11.02;63.53;100947.00;5093393;28;19919;-86
2024/03/14 05:43:52;;;;;;;;;;;;;;;11.09;64.44;100950.88;5093671;28;19916;-87
2024/03/14 05:46:45;;;;;;;;;;;;;;;10.91;63.85;100951.09;5093580;28;19916;-85
2024/03/14 05:49:38;;;;;;;;;;;;;;;11.06;64.35;100954.25;5093038;28;19920;-85
2024/03/14 05:52:31;;;;;;;;;;;;;;;11.11;64.13;100956.03;5070313;28;19916;-84
2024/03/14 05:55:20;;;;;;;;;;;;;;;10.97;63.90;100960.75;5084745;28;19920;-84
2024/03/14 05:58:12;;;;;;;;;;;;;;;10.96;64.26;100956.41;5084772;28;19920;-84
2024/03/14 06:01:05;;;;;;;;;;;;;;;11.05;64.15;100963.50;5092804;28;19916;-85
2024/03/14 06:03:57;;;;;;;;;;;;;;;11.12;64.42;100954.91;5081824;28;19916;-85
2024/03/14 06:06:49;;;;;;;;;;;;;;;11.17;64.15;100964.84;5085878;28;19916;-83
2024/03/14 06:09:41;;;;;;;;;;;;;;;11.21;64.31;100968.56;5095083;28;19920;-85
2024/03/14 06:12:30;;;;;;;;;;;;;;;11.34;64.53;100973.88;5092026;28;20388;-85
2024/03/14 06:15:22;;;;;;;;;;;;;;;11.12;63.80;100971.25;5078278;28;20304;-79
2024/03/14 06:18:15;;;;;;;;;;;;;;;11.13;63.79;100976.34;5081743;28;19919;-79
2024/03/14 06:21:05;;;;;;;;;;;;;;;12.62;61.51;100985.38;5091196;28;20377;-81
2024/03/14 06:23:57;;;;;;;;;;;;;;;12.14;60.54;100986.31;5092116;28;19916;-80
2024/03/14 06:26:46;;;;;;;;;;;;;;;11.37;63.58;100975.19;5081071;28;19916;-82
2024/03/14 06:29:39;;;;;;;;;;;;;;;11.38;63.92;100982.22;5073053;28;20301;-83
2024/03/14 06:32:29;;;;;;;;;;;;;;;12.34;64.72;100987.66;5083426;28;19923;-83
2024/03/14 06:35:20;;;;;;;;;;;;;;;11.78;64.35;100986.59;5091879;28;20571;-83
2024/03/14 06:38:12;;;;;;;;;;;;;;;11.85;64.98;100991.56;5077963;28;19920;-83
2024/03/14 06:41:04;;;;;;;;;;;;;;;12.02;64.76;100998.97;5081370;28;19916;-83
2024/03/14 06:43:57;;;;;;;;;;;;;;;11.80;65.68;100997.97;5091067;28;20292;-83
2024/03/14 06:46:49;;;;;;;;;;;;;;;12.00;65.43;101000.09;5082696;28;19917;-83
2024/03/14 06:49:42;;;;;;;;;;;;;;;12.30;65.69;100992.91;5077146;28;19923;-83
2024/03/14 06:52:34;;;;;;;;;;;;;;;12.57;65.18;101001.91;5101142;28;20563;-83
2024/03/14 06:55:26;;;;;;;;;;;;;;;12.70;64.81;100995.47;5096785;28;20305;-84
2024/03/14 06:58:18;;;;;;;;;;;;;;;12.77;64.57;101001.25;5111556;28;20289;-83
2024/03/14 07:01:13;;;;;;;;;;;;;;;12.90;64.52;101002.22;5111466;28;19919;-82
2024/03/14 07:04:07;;;;;;;;;;;;;;;13.10;64.30;101009.75;5114252;28;19920;-82
2024/03/14 07:06:58;;;;;;;;;;;;;;;13.35;63.20;100999.91;5086252;28;19917;-83
2024/03/14 07:09:45;;;;;;;;;;;;;;;13.25;63.16;101003.78;5090230;28;19919;-84
2024/03/14 07:12:37;;;;;;;;;;;;;;;13.59;62.96;101006.38;5091675;28;20373;-83
2024/03/14 07:15:29;;;;;;;;;;;;;;;13.81;62.35;101001.78;5068370;28;20369;-84
2024/03/14 07:18:21;;;;;;;;;;;;;;;13.89;62.07;101000.94;5098673;28;19919;-83
2024/03/14 07:21:14;;;;;;;;;;;;;;;13.97;60.93;101000.88;5099922;28;19916;-83
2024/03/14 07:24:06;;;;;;;;;;;;;;;14.32;60.54;101012.41;5100224;28;19916;-83
2024/03/14 07:26:55;;;;;;;;;;;;;;;14.58;60.31;101014.19;5104000;28;19916;-82
2024/03/14 07:29:44;;;;;;;;;;;;;;;14.72;59.62;101020.97;5101851;28;19924;-82
2024/03/14 07:32:39;;;;;;;;;;;;;;;14.78;58.87;101013.34;5096735;28;20376;-84
2024/03/14 07:35:27;;;;;;;;;;;;;;;14.85;58.57;101016.34;5097625;28;19916;-83
2024/03/14 07:38:26;;;;;;;;;;;;;;;14.89;58.54;101014.53;5096275;28;19916;-82
2024/03/14 07:41:25;;;;;;;;;;;;;;;14.88;58.85;101016.44;5094286;28;20384;-82
2024/03/14 07:44:17;;;;;;;;;;;;;;;14.98;57.86;101018.00;5095225;28;19920;-84
2024/03/14 07:47:08;;;;;;;;;;;;;;;15.20;57.61;101020.31;5094389;28;19916;-83
2024/03/14 07:50:00;;;;;;;;;;;;;;;15.22;57.83;101022.75;5092537;28;19920;-83
2024/03/14 07:52:58;;;;;;;;;;;;;;;15.58;57.43;101022.84;5087273;28;19916;-82
2024/03/14 07:55:49;;;;;;;;;;;;;;;15.43;56.81;101019.94;5099404;28;19916;-81
2024/03/14 07:58:41;;;;;;;;;;;;;;;15.34;56.94;101026.28;5097574;28;19916;-82
2024/03/14 08:01:34;;;;;;;;;;;;;;;15.43;56.68;101033.63;5087534;28;19920;-83
2024/03/14 08:04:24;;;;;;;;;;;;;;;15.79;55.87;101030.97;5096246;28;20303;-82
2024/03/14 08:07:16;;;;;;;;;;;;;;;16.15;55.67;101030.16;5113990;28;19915;-83
2024/03/14 08:10:08;;;;;;;;;;;;;;;16.08;54.56;101035.41;5093236;28;19923;-82
2024/03/14 08:13:00;;;;;;;;;;;;;;;16.12;54.54;101034.38;5102509;28;19916;-83
2024/03/14 08:15:56;;;;;;;;;;;;;;;16.49;53.76;101037.06;5101049;28;20369;-83
2024/03/14 08:18:51;;;;;;;;;;;;;;;16.85;53.45;101042.47;5112737;28;19916;-83
2024/03/14 08:21:43;;;;;;;;;;;;;;;16.87;52.11;101042.91;5116495;28;19923;-83
2024/03/14 08:24:42;;;;;;;;;;;;;;;17.03;51.92;101048.44;5113599;28;19915;-82
2024/03/14 08:27:38;;;;;;;;;;;;;;;17.05;50.87;101046.16;5103552;28;20415;-83
2024/03/14 08:30:30;;;;;;;;;;;;;;;17.26;50.58;101051.44;5114923;28;19920;-82
2024/03/14 08:33:25;;;;;;;;;;;;;;;17.68;49.95;101052.56;5113246;28;19924;-82
2024/03/14 08:36:18;;;;;;;;;;;;;;;17.33;50.61;101049.66;5116474;28;19916;-82
2024/03/14 08:39:09;;;;;;;;;;;;;;;17.43;50.36;101048.34;5099696;28;19920;-82
2024/03/14 08:42:02;;;;;;;;;;;;;;;18.04;49.16;101057.00;5118069;28;19919;-82
2024/03/14 08:44:55;;;;;;;;;;;;;;;18.51;48.24;101048.63;5099054;28;19916;-82
2024/03/14 08:47:47;;;;;;;;;;;;;;;18.50;47.96;101058.03;5113336;28;19916;-82
2024/03/14 08:50:42;;;;;;;;;;;;;;;18.29;48.29;101058.38;5112686;28;19927;-82
2024/03/14 08:54:07;;;;;;;;;;;;;;;18.39;47.64;101060.56;5113061;28;20354;-83
2024/03/14 08:56:49;;;;;;;;;;;;;;;18.18;48.22;101062.06;5102532;28;19919;-82
2024/03/14 08:59:41;;;;;;;;;;;;;;;18.07;48.38;101066.50;5114638;28;19919;-82
2024/03/14 09:02:33;;;;;;;;;;;;;;;19.00;48.02;101059.91;5113088;28;20296;-83
2024/03/14 09:05:25;;;;;;;;;;;;;;;19.29;47.39;101057.72;5116108;28;20300;-82
2024/03/14 09:08:24;;;;;;;;;;;;;;;19.34;46.41;101060.16;5111297;28;19915;-82
2024/03/14 09:11:13;;;;;;;;;;;;;;;18.18;48.61;101067.56;5081553;28;19920;-82
2024/03/14 09:14:05;;;;;;;;;;;;;;;18.95;46.69;101065.72;5100823;28;19920;-82
2024/03/14 09:16:55;;;;;;;;;;;;;;;19.60;44.83;101066.59;5091136;28;19916;-82
2024/03/14 09:19:47;;;;;;;;;;;;;;;19.18;46.72;101057.50;5115453;28;19919;-83
2024/03/14 09:22:44;;;;;;;;;;;;;;;20.90;43.42;101068.94;5112228;28;20408;-82
2024/03/14 09:25:36;;;;;;;;;;;;;;;24.75;35.75;101080.28;5063941;28;19920;-83
2024/03/14 09:28:25;;;;;;;;;;;;;;;26.16;32.44;101081.41;5075004;28;19916;-83
2024/03/14 09:31:17;;;;;;;;;;;;;;;28.15;29.77;101076.03;5072624;28;19924;-83
2024/03/14 09:34:09;;;;;;;;;;;;;;;29.78;27.27;101090.22;5073901;28;19917;-83
2024/03/14 09:37:02;;;;;;;;;;;;;;;32.01;24.71;101083.00;5073586;28;19920;-83
2024/03/14 09:39:54;;;;;;;;;;;;;;;31.88;23.69;101093.50;5071222;28;19917;-83
2024/03/14 09:42:49;;;;;;;;;;;;;;;32.10;22.63;101089.50;5095061;28;20384;-84
2024/03/14 09:45:42;;;;;;;;;;;;;;;30.80;24.35;101083.94;5107373;28;19916;-83
2024/03/14 09:48:34;;;;;;;;;;;;;;;29.98;25.82;101073.34;5076395;28;19920;-83
2024/03/14 09:51:29;;;;;;;;;;;;;;;32.88;22.18;101086.75;5102729;28;19919;-83
2024/03/14 09:54:21;;;;;;;;;;;;;;;33.31;21.70;101080.28;5084646;28;19919;-83
2024/03/14 09:57:12;;;;;;;;;;;;;;;33.99;20.88;101074.69;5094076;28;19923;-84
2024/03/14 10:00:04;;;;;;;;;;;;;;;33.37;21.00;101078.41;5093310;28;19920;-83
2024/03/14 10:03:02;;;;;;;;;;;;;;;31.88;23.07;101077.41;5089898;28;19920;-83
2024/03/14 10:05:55;;;;;;;;;;;;;;;31.48;23.33;101081.94;5089309;28;19916;-84
2024/03/14 10:08:50;;;;;;;;;;;;;;;32.01;23.60;101077.38;5089475;28;19916;-83
2024/03/14 10:11:42;;;;;;;;;;;;;;;31.55;24.24;101078.88;5086212;28;19915;-83
2024/03/14 10:14:38;;;;;;;;;;;;;;;31.24;24.21;101070.22;5083410;28;19920;-83
2024/03/14 10:17:40;;;;;;;;;;;;;;;30.66;25.10;101072.34;5088421;28;19924;-83
2024/03/14 10:20:26;;;;;;;;;;;;;;;31.27;24.02;101070.13;5092240;28;19920;-85
2024/03/14 10:23:18;;;;;;;;;;;;;;;32.13;23.25;101065.31;5090500;28;19920;-84
2024/03/14 10:26:10;;;;;;;;;;;;;;;31.48;24.26;101076.31;5091289;28;19916;-84
2024/03/14 10:29:00;;;;;;;;;;;;;;;32.48;22.72;101063.28;5093199;28;19924;-84
2024/03/14 10:31:52;;;;;;;;;;;;;;;30.19;24.96;101055.94;5094637;28;19920;-84
2024/03/14 10:34:43;;;;;;;;;;;;;;;31.69;23.97;101064.41;5084219;28;19917;-84
2024/03/14 10:37:33;;;;;;;;;;;;;;;32.95;23.08;101063.94;5093044;28;19919;-85
2024/03/14 10:40:28;;;;;;;;;;;;;;;33.27;21.92;101065.50;5089431;28;19920;-82
2024/03/14 10:43:19;;;;;;;;;;;;;;;33.52;21.65;101068.13;5090244;28;19916;-83
2024/03/14 10:46:11;;;;;;;;;;;;;;;33.49;22.33;101057.00;5092745;28;19942;-84
2024/03/14 10:49:03;;;;;;;;;;;;;;;34.03;21.36;101061.22;5098634;28;20328;-83
2024/03/14 10:51:56;;;;;;;;;;;;;;;34.00;21.55;101060.13;5094138;28;19920;-83
2024/03/14 10:54:58;;;;;;;;;;;;;;;33.24;22.53;101054.38;5095351;28;19919;-83
2024/03/14 10:57:50;;;;;;;;;;;;;;;31.33;24.08;101056.28;5095536;28;19920;-83
2024/03/14 11:00:42;;;;;;;;;;;;;;;32.18;23.82;101045.84;5094765;28;19920;-83
2024/03/14 11:03:32;;;;;;;;;;;;;;;33.64;22.22;101054.38;5089564;28;19916;-82
2024/03/14 11:06:26;;;;;;;;;;;;;;;33.36;22.19;101053.50;5095240;28;19920;-82
2024/03/14 11:09:18;;;;;;;;;;;;;;;32.68;22.25;101046.84;5095307;28;19924;-81
2024/03/14 11:12:09;;;;;;;;;;;;;;;33.45;22.09;101051.50;5099220;28;20393;-84
2024/03/14 11:15:04;;;;;;;;;;;;;;;33.26;21.98;101047.06;5094324;28;19920;-82
2024/03/14 11:17:59;;;;;;;;;;;;;;;32.58;22.31;101045.19;5092340;28;19920;-82
2024/03/14 11:20:55;;;;;;;;;;;;;;;32.95;22.35;101049.84;5097570;28;19920;-83
2024/03/14 11:23:47;;;;;;;;;;;;;;;32.97;21.89;101050.16;5081116;28;19916;-84
2024/03/14 11:26:36;;;;;;;;;;;;;;;32.99;21.54;101049.69;5090167;28;19920;-82
2024/03/14 11:29:30;;;;;;;;;;;;;;;32.57;22.00;101049.25;5097433;28;20422;-82
2024/03/14 11:32:25;;;;;;;;;;;;;;;34.11;20.83;101046.31;5094702;28;19920;-83
2024/03/14 11:35:56;;;;;;;;;;;;;;;35.23;20.07;101043.69;5094175;28;19924;-82
2024/03/14 11:38:42;;;;;;;;;;;;;;;36.73;18.08;101041.22;5076549;28;19920;-83
2024/03/14 11:41:34;;;;;;;;;;;;;;;35.48;18.95;101038.38;5112572;28;19920;-84
2024/03/14 11:44:30;;;;;;;;;;;;;;;36.52;18.34;101042.38;5083290;28;19916;-84
2024/03/14 11:47:55;;;;;;;;;;;;;;;35.91;18.59;101037.00;5099656;28;19923;-82
2024/03/14 11:50:44;;;;;;;;;;;;;;;36.77;17.41;101027.66;5031504;28;19925;-82
2024/03/14 11:53:36;;;;;;;;;;;;;;;31.67;22.57;101016.25;5082201;28;19920;-82
2024/03/14 11:56:26;;;;;;;;;;;;;;;27.69;28.84;101013.28;5082610;28;19916;-84
2024/03/14 11:59:18;;;;;;;;;;;;;;;32.76;23.25;101005.91;5094573;28;19920;-82
2024/03/14 12:02:07;;;;;;;;;;;;;;;36.71;18.96;101012.59;5095493;28;19920;-82
2024/03/14 12:04:59;;;;;;;;;;;;;;;36.73;17.46;101007.97;5079849;28;19920;-84
2024/03/14 12:07:51;;;;;;;;;;;;;;;36.39;17.93;101017.13;5082272;28;19916;-83
2024/03/14 12:10:44;;;;;;;;;;;;;;;38.20;16.51;101012.47;5082584;28;20360;-82
2024/03/14 12:13:33;;;;;;;;;;;;;;;38.21;16.52;101003.41;5086946;28;19916;-83
2024/03/14 12:16:25;;;;;;;;;;;;;;;38.23;16.46;101003.69;5090451;28;20012;-84
2024/03/14 12:19:19;;;;;;;;;;;;;;;37.43;16.90;100998.78;5088709;28;20377;-84
2024/03/14 12:22:10;;;;;;;;;;;;;;;36.55;17.06;100988.31;5080443;28;19920;-83
2024/03/14 12:25:02;;;;;;;;;;;;;;;36.88;17.53;100979.59;5079713;28;19916;-84
2024/03/14 12:27:57;;;;;;;;;;;;;;;31.23;22.81;100970.28;5081405;28;19916;-83
2024/03/14 12:31:00;;;;;;;;;;;;;;;31.40;22.62;100964.06;5078645;28;19920;-84
2024/03/14 12:33:52;;;;;;;;;;;;;;;30.52;23.31;100958.44;5093767;28;19916;-82
2024/03/14 12:36:45;;;;;;;;;;;;;;;34.15;21.00;100958.63;5080075;28;19920;-82
2024/03/14 12:39:34;;;;;;;;;;;;;;;35.39;19.19;100958.44;5088088;28;20388;-83
2024/03/14 12:42:24;;;;;;;;;;;;;;;34.10;20.15;100950.78;5081563;28;19924;-82
2024/03/14 12:45:16;;;;;;;;;;;;;;;34.30;20.47;100956.75;5078654;28;19920;-82
2024/03/14 12:48:08;;;;;;;;;;;;;;;32.98;21.51;100950.28;5093601;28;19920;-82
2024/03/14 12:51:10;;;;;;;;;;;;;;;29.24;26.00;100944.19;5093322;28;19920;-81
2024/03/14 12:54:02;;;;;;;;;;;;;;;28.71;26.82;100937.78;5093386;28;19999;-82
2024/03/14 12:56:56;;;;;;;;;;;;;;;30.33;26.21;100934.88;5092833;28;19924;-81
2024/03/14 12:59:53;;;;;;;;;;;;;;;30.24;26.01;100937.56;5087605;28;19915;-82
2024/03/14 13:02:45;;;;;;;;;;;;;;;29.48;26.38;100933.59;5082846;28;19920;-82
2024/03/14 13:05:36;;;;;;;;;;;;;;;29.33;26.99;100928.38;5099987;28;19919;-82
2024/03/14 13:08:28;;;;;;;;;;;;;;;27.90;28.88;100922.66;5085471;28;19915;-83
2024/03/14 13:11:23;;;;;;;;;;;;;;;27.24;29.42;100917.84;5081008;28;19920;-83
2024/03/14 13:14:17;;;;;;;;;;;;;;;26.07;31.21;100911.06;5069437;28;19916;-84
2024/03/14 13:17:12;;;;;;;;;;;;;;;25.98;31.24;100914.34;5084713;28;19932;-83
2024/03/14 13:20:04;;;;;;;;;;;;;;;26.23;30.83;100908.50;5085158;28;19939;-83
2024/03/14 13:22:53;;;;;;;;;;;;;;;26.75;31.47;100905.44;5074721;28;19931;-83
2024/03/14 13:25:48;;;;;;;;;;;;;;;25.89;32.47;100907.69;5087930;28;19920;-81
2024/03/14 13:28:40;;;;;;;;;;;;;;;26.21;31.79;100899.72;5105435;28;19920;-81
2024/03/14 13:31:32;;;;;;;;;;;;;;;26.49;30.95;100895.03;5113114;28;19923;-82
2024/03/14 13:34:24;;;;;;;;;;;;;;;26.31;31.45;100890.47;5098194;28;19920;-82
2024/03/14 13:37:17;;;;;;;;;;;;;;;26.60;31.00;100876.94;5094299;28;19919;-82
2024/03/14 13:40:10;;;;;;;;;;;;;;;26.75;31.39;100869.94;5111662;28;19920;-82
2024/03/14 13:43:02;;;;;;;;;;;;;;;26.43;31.80;100882.75;5113891;28;19920;-82
2024/03/14 13:45:55;;;;;;;;;;;;;;;26.20;31.92;100873.09;5112022;28;19916;-82
2024/03/14 13:48:46;;;;;;;;;;;;;;;25.63;33.47;100875.75;5111733;28;20380;-82
2024/03/14 13:51:39;;;;;;;;;;;;;;;25.63;33.09;100870.16;5108701;28;19919;-82
2024/03/14 13:54:31;;;;;;;;;;;;;;;25.24;32.85;100869.72;5099366;28;19919;-82
2024/03/14 13:57:23;;;;;;;;;;;;;;;25.02;33.22;100853.22;5114288;28;20317;-81
2024/03/14 14:00:13;;;;;;;;;;;;;;;24.83;34.11;100855.72;5111507;28;19916;-82
2024/03/14 14:03:05;;;;;;;;;;;;;;;24.83;33.89;100850.16;5109690;28;19916;-82
2024/03/14 14:05:55;;;;;;;;;;;;;;;24.99;34.92;100858.81;5101721;28;20376;-82
2024/03/14 14:08:47;;;;;;;;;;;;;;;24.42;34.98;100850.81;5111402;28;20320;-82
2024/03/14 14:11:37;;;;;;;;;;;;;;;24.94;34.64;100845.34;5111622;28;19920;-82
2024/03/14 14:14:29;;;;;;;;;;;;;;;24.62;34.82;100851.91;5078793;28;19917;-81
2024/03/14 14:17:20;;;;;;;;;;;;;;;24.97;34.59;100852.84;5087249;28;19924;-82
2024/03/14 14:20:12;;;;;;;;;;;;;;;24.93;34.71;100843.75;5102976;28;19920;-82
2024/03/14 14:23:04;;;;;;;;;;;;;;;23.98;35.27;100845.03;5107631;28;19923;-82
2024/03/14 14:25:56;;;;;;;;;;;;;;;23.53;35.71;100842.00;5115802;28;19916;-82
2024/03/14 14:28:48;;;;;;;;;;;;;;;23.74;36.39;100841.16;5111074;28;19919;-82
2024/03/14 14:31:39;;;;;;;;;;;;;;;23.85;36.37;100837.16;5106720;28;19920;-82
2024/03/14 14:34:31;;;;;;;;;;;;;;;23.68;36.42;100831.66;5099014;28;19916;-82
2024/03/14 14:37:23;;;;;;;;;;;;;;;23.79;36.48;100837.97;5098113;28;19919;-82
2024/03/14 14:40:15;;;;;;;;;;;;;;;23.64;35.81;100830.88;5077755;28;20118;-81
2024/03/14 14:43:07;;;;;;;;;;;;;;;23.26;36.88;100827.75;5082310;28;19919;-81